Terminal Aerodrome Forecast
Issued by NWS Cleveland, OH

Home | Current Version | Previous Version | Graphics & Text | Print | Product List | Glossary On
Versions: 1 2 3 4 5 6 7 8 9 10 11 12 13 14 15 16 17 18 19 20 21 22 23 24 25 26 27 28 29 30
000
FTUS41 KCLE 191200 AAA
TAFCLE
TAF AMD
KCLE 191253Z 1913/2018 12005KT P6SM OVC012
      TEMPO 1913/1915 5SM -SHRA BR
     FM191800 23007KT 6SM -SHRA BR VCTS OVC025CB
     FM192000 36007KT P6SM VCTS BKN035CB OVC050
     FM200000 VRB03KT P6SM BKN050
     FM200600 00000KT 5SM BR SCT025=

USA.gov is the U.S. government's official web portal to all federal, state and local government web resources and services.